sensor_id;sensor_type;location;lat;lon;timestamp;P1;durP1;ratioP1;P2;durP2;ratioP2
9900;SDS011;4989;48.772;9.154;2023-05-13T00:02:43;446.87;;;419.87;;
9900;SDS011;4989;48.772;9.154;2023-05-13T00:07:46;446.57;;;419.43;;
9900;SDS011;4989;48.772;9.154;2023-05-13T00:12:48;421.43;;;396.70;;
9900;SDS011;4989;48.772;9.154;2023-05-13T00:17:50;430.63;;;405.53;;
9900;SDS011;4989;48.772;9.154;2023-05-13T00:22:52;442.63;;;416.67;;
9900;SDS011;4989;48.772;9.154;2023-05-13T00:27:54;365.50;;;344.70;;
9900;SDS011;4989;48.772;9.154;2023-05-13T00:32:57;361.63;;;340.57;;
9900;SDS011;4989;48.772;9.154;2023-05-13T00:37:59;346.80;;;327.47;;
9900;SDS011;4989;48.772;9.154;2023-05-13T00:43:01;347.67;;;328.17;;
9900;SDS011;4989;48.772;9.154;2023-05-13T00:48:04;427.83;;;387.83;;
9900;SDS011;4989;48.772;9.154;2023-05-13T00:53:09;462.83;;;421.67;;
9900;SDS011;4989;48.772;9.154;2023-05-13T00:58:12;471.13;;;429.67;;
9900;SDS011;4989;48.772;9.154;2023-05-13T01:03:18;459.87;;;418.80;;
9900;SDS011;4989;48.772;9.154;2023-05-13T01:14:24;438.03;;;397.70;;
9900;SDS011;4989;48.772;9.154;2023-05-13T01:19:48;419.93;;;378.53;;
9900;SDS011;4989;48.772;9.154;2023-05-13T01:24:56;404.93;;;365.80;;
9900;SDS011;4989;48.772;9.154;2023-05-13T01:29:58;398.37;;;360.13;;
9900;SDS011;4989;48.772;9.154;2023-05-13T01:35:04;402.67;;;364.10;;
9900;SDS011;4989;48.772;9.154;2023-05-13T01:40:13;472.00;;;430.13;;
9900;SDS011;4989;48.772;9.154;2023-05-13T01:45:37;459.37;;;418.00;;
9900;SDS011;4989;48.772;9.154;2023-05-13T01:50:39;472.73;;;430.33;;
9900;SDS011;4989;48.772;9.154;2023-05-13T01:55:42;483.30;;;440.40;;
9900;SDS011;4989;48.772;9.154;2023-05-13T02:00:44;497.77;;;454.23;;
9900;SDS011;4989;48.772;9.154;2023-05-13T02:05:47;480.93;;;438.17;;
9900;SDS011;4989;48.772;9.154;2023-05-13T02:10:58;501.53;;;457.93;;
9900;SDS011;4989;48.772;9.154;2023-05-13T02:16:02;412.97;;;373.03;;
9900;SDS011;4989;48.772;9.154;2023-05-13T02:21:06;440.03;;;398.77;;
9900;SDS011;4989;48.772;9.154;2023-05-13T02:26:08;479.50;;;436.83;;
9900;SDS011;4989;48.772;9.154;2023-05-13T02:31:10;471.27;;;429.30;;
9900;SDS011;4989;48.772;9.154;2023-05-13T02:36:14;475.70;;;433.60;;
9900;SDS011;4989;48.772;9.154;2023-05-13T02:41:17;480.83;;;439.50;;
9900;SDS011;4989;48.772;9.154;2023-05-13T02:46:21;484.40;;;444.33;;
9900;SDS011;4989;48.772;9.154;2023-05-13T02:51:23;472.00;;;431.83;;
9900;SDS011;4989;48.772;9.154;2023-05-13T02:56:26;431.30;;;394.10;;
9900;SDS011;4989;48.772;9.154;2023-05-13T03:01:29;429.07;;;394.47;;
9900;SDS011;4989;48.772;9.154;2023-05-13T03:06:31;436.53;;;401.77;;
9900;SDS011;4989;48.772;9.154;2023-05-13T03:11:33;422.20;;;387.33;;
9900;SDS011;4989;48.772;9.154;2023-05-13T03:16:36;424.30;;;389.07;;
9900;SDS011;4989;48.772;9.154;2023-05-13T03:21:38;458.83;;;422.83;;
9900;SDS011;4989;48.772;9.154;2023-05-13T03:26:44;484.00;;;446.33;;
9900;SDS011;4989;48.772;9.154;2023-05-13T03:31:47;493.20;;;455.60;;
9900;SDS011;4989;48.772;9.154;2023-05-13T03:36:50;493.57;;;452.00;;
9900;SDS011;4989;48.772;9.154;2023-05-13T03:41:52;477.27;;;436.30;;
9900;SDS011;4989;48.772;9.154;2023-05-13T03:46:55;459.73;;;422.20;;
9900;SDS011;4989;48.772;9.154;2023-05-13T03:51:58;423.07;;;389.27;;
9900;SDS011;4989;48.772;9.154;2023-05-13T03:57:01;420.50;;;387.57;;
9900;SDS011;4989;48.772;9.154;2023-05-13T04:02:04;390.50;;;362.40;;
9900;SDS011;4989;48.772;9.154;2023-05-13T04:07:07;403.00;;;374.00;;
9900;SDS011;4989;48.772;9.154;2023-05-13T04:12:09;414.87;;;386.00;;
9900;SDS011;4989;48.772;9.154;2023-05-13T04:17:12;438.43;;;409.27;;
9900;SDS011;4989;48.772;9.154;2023-05-13T04:22:15;431.40;;;402.90;;
9900;SDS011;4989;48.772;9.154;2023-05-13T04:27:17;419.27;;;391.60;;
9900;SDS011;4989;48.772;9.154;2023-05-13T04:32:20;450.87;;;420.80;;
9900;SDS011;4989;48.772;9.154;2023-05-13T04:37:26;398.90;;;372.30;;
9900;SDS011;4989;48.772;9.154;2023-05-13T04:42:32;385.00;;;359.47;;
9900;SDS011;4989;48.772;9.154;2023-05-13T04:47:35;386.07;;;360.37;;
9900;SDS011;4989;48.772;9.154;2023-05-13T04:52:39;416.93;;;389.27;;
9900;SDS011;4989;48.772;9.154;2023-05-13T04:57:44;418.03;;;390.03;;
9900;SDS011;4989;48.772;9.154;2023-05-13T05:02:46;419.77;;;392.47;;
9900;SDS011;4989;48.772;9.154;2023-05-13T05:07:48;480.27;;;446.80;;
9900;SDS011;4989;48.772;9.154;2023-05-13T05:12:52;438.33;;;410.93;;
9900;SDS011;4989;48.772;9.154;2023-05-13T05:17:56;383.47;;;358.67;;
9900;SDS011;4989;48.772;9.154;2023-05-13T05:23:00;368.83;;;344.13;;
9900;SDS011;4989;48.772;9.154;2023-05-13T05:28:03;387.73;;;359.57;;
9900;SDS011;4989;48.772;9.154;2023-05-13T05:33:07;406.37;;;375.13;;
9900;SDS011;4989;48.772;9.154;2023-05-13T05:38:12;443.63;;;411.53;;
9900;SDS011;4989;48.772;9.154;2023-05-13T05:43:16;443.10;;;411.03;;
9900;SDS011;4989;48.772;9.154;2023-05-13T05:48:18;437.10;;;407.13;;
9900;SDS011;4989;48.772;9.154;2023-05-13T05:53:23;459.67;;;428.10;;
9900;SDS011;4989;48.772;9.154;2023-05-13T05:58:25;408.47;;;379.10;;
9900;SDS011;4989;48.772;9.154;2023-05-13T06:03:28;389.23;;;361.70;;
9900;SDS011;4989;48.772;9.154;2023-05-13T06:08:30;374.93;;;347.97;;
9900;SDS011;4989;48.772;9.154;2023-05-13T06:13:32;387.63;;;360.10;;
9900;SDS011;4989;48.772;9.154;2023-05-13T06:18:35;379.17;;;353.50;;
9900;SDS011;4989;48.772;9.154;2023-05-13T06:23:37;391.07;;;364.93;;
9900;SDS011;4989;48.772;9.154;2023-05-13T06:28:40;428.53;;;400.23;;
9900;SDS011;4989;48.772;9.154;2023-05-13T06:33:42;464.40;;;430.43;;
9900;SDS011;4989;48.772;9.154;2023-05-13T06:38:44;470.60;;;436.40;;
9900;SDS011;4989;48.772;9.154;2023-05-13T06:43:46;458.70;;;427.07;;
9900;SDS011;4989;48.772;9.154;2023-05-13T06:48:54;435.80;;;405.83;;
9900;SDS011;4989;48.772;9.154;2023-05-13T06:53:58;397.93;;;370.83;;
9900;SDS011;4989;48.772;9.154;2023-05-13T06:59:03;390.83;;;364.30;;
9900;SDS011;4989;48.772;9.154;2023-05-13T07:04:06;390.47;;;364.47;;
9900;SDS011;4989;48.772;9.154;2023-05-13T07:09:08;430.00;;;401.70;;
9900;SDS011;4989;48.772;9.154;2023-05-13T07:14:10;470.53;;;437.67;;
9900;SDS011;4989;48.772;9.154;2023-05-13T07:19:13;438.63;;;409.60;;
9900;SDS011;4989;48.772;9.154;2023-05-13T07:24:15;436.77;;;407.57;;
9900;SDS011;4989;48.772;9.154;2023-05-13T07:29:17;455.30;;;424.77;;
9900;SDS011;4989;48.772;9.154;2023-05-13T07:34:19;439.80;;;411.80;;
9900;SDS011;4989;48.772;9.154;2023-05-13T07:39:22;466.37;;;436.93;;
9900;SDS011;4989;48.772;9.154;2023-05-13T07:44:24;493.33;;;460.13;;
9900;SDS011;4989;48.772;9.154;2023-05-13T07:49:26;422.87;;;395.60;;
9900;SDS011;4989;48.772;9.154;2023-05-13T07:54:29;413.13;;;386.77;;
9900;SDS011;4989;48.772;9.154;2023-05-13T07:59:31;413.03;;;385.73;;
9900;SDS011;4989;48.772;9.154;2023-05-13T08:04:33;428.33;;;400.97;;
9900;SDS011;4989;48.772;9.154;2023-05-13T08:09:36;421.67;;;395.93;;
9900;SDS011;4989;48.772;9.154;2023-05-13T08:14:38;416.97;;;391.07;;
9900;SDS011;4989;48.772;9.154;2023-05-13T08:19:41;408.20;;;383.87;;
9900;SDS011;4989;48.772;9.154;2023-05-13T08:24:43;445.37;;;418.30;;
9900;SDS011;4989;48.772;9.154;2023-05-13T08:29:45;457.40;;;429.30;;
9900;SDS011;4989;48.772;9.154;2023-05-13T08:34:47;430.40;;;404.40;;
9900;SDS011;4989;48.772;9.154;2023-05-13T08:39:50;440.00;;;413.33;;
9900;SDS011;4989;48.772;9.154;2023-05-13T08:44:53;462.13;;;434.63;;
9900;SDS011;4989;48.772;9.154;2023-05-13T08:49:55;436.23;;;410.20;;
9900;SDS011;4989;48.772;9.154;2023-05-13T08:54:58;423.90;;;397.80;;
9900;SDS011;4989;48.772;9.154;2023-05-13T09:00:04;439.77;;;413.07;;
9900;SDS011;4989;48.772;9.154;2023-05-13T09:05:07;442.80;;;414.67;;
9900;SDS011;4989;48.772;9.154;2023-05-13T09:10:11;566.37;;;527.43;;
9900;SDS011;4989;48.772;9.154;2023-05-13T09:15:14;568.40;;;525.93;;
9900;SDS011;4989;48.772;9.154;2023-05-13T09:20:22;580.93;;;538.27;;
9900;SDS011;4989;48.772;9.154;2023-05-13T09:25:26;528.27;;;488.43;;
9900;SDS011;4989;48.772;9.154;2023-05-13T09:35:41;513.00;;;475.67;;
9900;SDS011;4989;48.772;9.154;2023-05-13T09:46:02;500.37;;;458.53;;
9900;SDS011;4989;48.772;9.154;2023-05-13T09:51:05;501.57;;;459.53;;
9900;SDS011;4989;48.772;9.154;2023-05-13T09:56:08;491.23;;;449.37;;
9900;SDS011;4989;48.772;9.154;2023-05-13T10:01:10;525.03;;;481.30;;
9900;SDS011;4989;48.772;9.154;2023-05-13T10:06:15;548.93;;;504.10;;
9900;SDS011;4989;48.772;9.154;2023-05-13T10:11:18;549.30;;;504.40;;
9900;SDS011;4989;48.772;9.154;2023-05-13T10:16:22;548.37;;;503.57;;
9900;SDS011;4989;48.772;9.154;2023-05-13T10:21:26;553.03;;;508.57;;
9900;SDS011;4989;48.772;9.154;2023-05-13T10:26:29;515.80;;;473.67;;
9900;SDS011;4989;48.772;9.154;2023-05-13T10:31:32;512.60;;;471.70;;
9900;SDS011;4989;48.772;9.154;2023-05-13T10:36:48;515.07;;;474.13;;
9900;SDS011;4989;48.772;9.154;2023-05-13T10:42:30;572.33;;;529.00;;
9900;SDS011;4989;48.772;9.154;2023-05-13T10:47:48;582.33;;;538.77;;
9900;SDS011;4989;48.772;9.154;2023-05-13T10:52:55;589.57;;;546.23;;
9900;SDS011;4989;48.772;9.154;2023-05-13T10:58:08;556.63;;;509.17;;
9900;SDS011;4989;48.772;9.154;2023-05-13T11:03:14;601.30;;;550.77;;
9900;SDS011;4989;48.772;9.154;2023-05-13T11:19:18;608.03;;;555.37;;
9900;SDS011;4989;48.772;9.154;2023-05-13T11:24:30;540.10;;;498.40;;
9900;SDS011;4989;48.772;9.154;2023-05-13T11:29:33;530.40;;;490.27;;
9900;SDS011;4989;48.772;9.154;2023-05-13T11:34:37;547.20;;;506.77;;
9900;SDS011;4989;48.772;9.154;2023-05-13T11:39:52;603.90;;;562.50;;
9900;SDS011;4989;48.772;9.154;2023-05-13T11:44:54;562.90;;;518.30;;
9900;SDS011;4989;48.772;9.154;2023-05-13T11:49:57;517.13;;;474.60;;
9900;SDS011;4989;48.772;9.154;2023-05-13T11:55:00;493.73;;;446.43;;
9900;SDS011;4989;48.772;9.154;2023-05-13T12:00:06;488.93;;;441.87;;
9900;SDS011;4989;48.772;9.154;2023-05-13T12:05:10;511.43;;;468.57;;
9900;SDS011;4989;48.772;9.154;2023-05-13T12:10:13;502.43;;;459.73;;
9900;SDS011;4989;48.772;9.154;2023-05-13T12:15:16;529.97;;;486.70;;
9900;SDS011;4989;48.772;9.154;2023-05-13T12:20:21;525.73;;;482.50;;
9900;SDS011;4989;48.772;9.154;2023-05-13T12:25:32;548.53;;;500.47;;
9900;SDS011;4989;48.772;9.154;2023-05-13T12:30:49;544.73;;;499.73;;
9900;SDS011;4989;48.772;9.154;2023-05-13T12:36:18;468.77;;;428.57;;
9900;SDS011;4989;48.772;9.154;2023-05-13T12:41:37;490.67;;;449.77;;
9900;SDS011;4989;48.772;9.154;2023-05-13T12:46:51;539.37;;;492.80;;
9900;SDS011;4989;48.772;9.154;2023-05-13T12:51:55;580.83;;;535.43;;
9900;SDS011;4989;48.772;9.154;2023-05-13T12:56:57;569.60;;;524.63;;
9900;SDS011;4989;48.772;9.154;2023-05-13T13:01:59;556.03;;;512.80;;
9900;SDS011;4989;48.772;9.154;2023-05-13T13:07:02;570.17;;;526.63;;
9900;SDS011;4989;48.772;9.154;2023-05-13T13:12:05;607.23;;;562.67;;
9900;SDS011;4989;48.772;9.154;2023-05-13T13:17:08;624.27;;;579.10;;
9900;SDS011;4989;48.772;9.154;2023-05-13T13:22:10;712.03;;;664.20;;
9900;SDS011;4989;48.772;9.154;2023-05-13T13:27:12;753.40;;;702.87;;
9900;SDS011;4989;48.772;9.154;2023-05-13T13:32:14;734.60;;;684.83;;
9900;SDS011;4989;48.772;9.154;2023-05-13T13:37:16;714.70;;;665.40;;
9900;SDS011;4989;48.772;9.154;2023-05-13T13:42:19;672.00;;;624.00;;
9900;SDS011;4989;48.772;9.154;2023-05-13T13:47:23;669.90;;;622.20;;
9900;SDS011;4989;48.772;9.154;2023-05-13T13:52:26;667.27;;;619.83;;
9900;SDS011;4989;48.772;9.154;2023-05-13T13:57:29;624.13;;;578.67;;
9900;SDS011;4989;48.772;9.154;2023-05-13T14:02:31;583.43;;;539.50;;
9900;SDS011;4989;48.772;9.154;2023-05-13T14:07:34;581.23;;;537.37;;
9900;SDS011;4989;48.772;9.154;2023-05-13T14:12:38;565.00;;;521.47;;
9900;SDS011;4989;48.772;9.154;2023-05-13T14:17:41;571.40;;;526.80;;
9900;SDS011;4989;48.772;9.154;2023-05-13T14:22:44;579.07;;;534.03;;
9900;SDS011;4989;48.772;9.154;2023-05-13T14:27:46;592.90;;;547.40;;
9900;SDS011;4989;48.772;9.154;2023-05-13T14:32:48;586.70;;;540.97;;
9900;SDS011;4989;48.772;9.154;2023-05-13T14:37:50;576.80;;;531.33;;
9900;SDS011;4989;48.772;9.154;2023-05-13T14:42:52;580.07;;;534.53;;
9900;SDS011;4989;48.772;9.154;2023-05-13T14:47:54;583.33;;;537.77;;
9900;SDS011;4989;48.772;9.154;2023-05-13T14:52:57;591.40;;;545.90;;
9900;SDS011;4989;48.772;9.154;2023-05-13T14:57:59;535.10;;;492.63;;
9900;SDS011;4989;48.772;9.154;2023-05-13T15:03:02;544.40;;;501.40;;
9900;SDS011;4989;48.772;9.154;2023-05-13T15:08:05;560.13;;;516.33;;
9900;SDS011;4989;48.772;9.154;2023-05-13T15:13:08;548.80;;;505.70;;
9900;SDS011;4989;48.772;9.154;2023-05-13T15:18:12;569.83;;;525.43;;
9900;SDS011;4989;48.772;9.154;2023-05-13T15:23:15;598.77;;;552.77;;
9900;SDS011;4989;48.772;9.154;2023-05-13T15:28:17;606.10;;;559.97;;
9900;SDS011;4989;48.772;9.154;2023-05-13T15:33:19;592.97;;;547.23;;
9900;SDS011;4989;48.772;9.154;2023-05-13T15:38:22;616.30;;;569.90;;
9900;SDS011;4989;48.772;9.154;2023-05-13T15:43:24;604.73;;;558.50;;
9900;SDS011;4989;48.772;9.154;2023-05-13T15:48:27;606.10;;;560.10;;
9900;SDS011;4989;48.772;9.154;2023-05-13T15:53:29;540.70;;;497.37;;
9900;SDS011;4989;48.772;9.154;2023-05-13T15:58:31;540.53;;;497.37;;
9900;SDS011;4989;48.772;9.154;2023-05-13T16:03:34;568.20;;;523.73;;
9900;SDS011;4989;48.772;9.154;2023-05-13T16:08:39;546.23;;;502.57;;
9900;SDS011;4989;48.772;9.154;2023-05-13T16:13:41;576.60;;;531.57;;
9900;SDS011;4989;48.772;9.154;2023-05-13T16:18:43;565.73;;;520.43;;
9900;SDS011;4989;48.772;9.154;2023-05-13T16:23:46;558.80;;;513.53;;
9900;SDS011;4989;48.772;9.154;2023-05-13T16:28:48;539.93;;;495.03;;
9900;SDS011;4989;48.772;9.154;2023-05-13T16:33:50;508.20;;;464.37;;
9900;SDS011;4989;48.772;9.154;2023-05-13T16:38:53;510.60;;;466.67;;
9900;SDS011;4989;48.772;9.154;2023-05-13T16:43:55;527.13;;;483.07;;
9900;SDS011;4989;48.772;9.154;2023-05-13T16:48:57;490.80;;;447.57;;
9900;SDS011;4989;48.772;9.154;2023-05-13T16:54:00;440.37;;;399.67;;
9900;SDS011;4989;48.772;9.154;2023-05-13T16:59:03;454.40;;;413.27;;
9900;SDS011;4989;48.772;9.154;2023-05-13T17:04:05;448.07;;;407.13;;
9900;SDS011;4989;48.772;9.154;2023-05-13T17:09:07;452.87;;;411.53;;
9900;SDS011;4989;48.772;9.154;2023-05-13T17:14:10;436.03;;;395.27;;
9900;SDS011;4989;48.772;9.154;2023-05-13T17:19:12;474.37;;;431.90;;
9900;SDS011;4989;48.772;9.154;2023-05-13T17:24:15;486.37;;;442.57;;
9900;SDS011;4989;48.772;9.154;2023-05-13T17:29:17;482.77;;;439.60;;
9900;SDS011;4989;48.772;9.154;2023-05-13T17:34:19;478.40;;;435.20;;
9900;SDS011;4989;48.772;9.154;2023-05-13T17:39:21;473.07;;;430.17;;
9900;SDS011;4989;48.772;9.154;2023-05-13T17:44:23;518.77;;;473.90;;
9900;SDS011;4989;48.772;9.154;2023-05-13T17:49:26;483.60;;;440.07;;
9900;SDS011;4989;48.772;9.154;2023-05-13T17:54:28;409.67;;;368.93;;
9900;SDS011;4989;48.772;9.154;2023-05-13T17:59:30;401.27;;;361.17;;
9900;SDS011;4989;48.772;9.154;2023-05-13T18:04:32;373.30;;;334.40;;
9900;SDS011;4989;48.772;9.154;2023-05-13T18:09:35;386.57;;;347.13;;
9900;SDS011;4989;48.772;9.154;2023-05-13T18:14:37;381.20;;;342.13;;
9900;SDS011;4989;48.772;9.154;2023-05-13T18:19:39;394.83;;;355.17;;
9900;SDS011;4989;48.772;9.154;2023-05-13T18:24:42;410.03;;;369.47;;
9900;SDS011;4989;48.772;9.154;2023-05-13T18:29:44;443.40;;;401.47;;
9900;SDS011;4989;48.772;9.154;2023-05-13T18:34:47;415.53;;;374.33;;
9900;SDS011;4989;48.772;9.154;2023-05-13T18:39:49;420.57;;;379.40;;
9900;SDS011;4989;48.772;9.154;2023-05-13T18:44:51;439.60;;;397.43;;
9900;SDS011;4989;48.772;9.154;2023-05-13T18:49:53;440.67;;;398.53;;
9900;SDS011;4989;48.772;9.154;2023-05-13T18:54:56;446.43;;;404.00;;
9900;SDS011;4989;48.772;9.154;2023-05-13T18:59:58;398.47;;;358.07;;
9900;SDS011;4989;48.772;9.154;2023-05-13T19:05:00;362.80;;;324.13;;
9900;SDS011;4989;48.772;9.154;2023-05-13T19:10:02;382.47;;;343.17;;
9900;SDS011;4989;48.772;9.154;2023-05-13T19:15:05;400.47;;;360.63;;
9900;SDS011;4989;48.772;9.154;2023-05-13T19:20:08;393.93;;;354.57;;
9900;SDS011;4989;48.772;9.154;2023-05-13T19:25:11;447.37;;;405.50;;
9900;SDS011;4989;48.772;9.154;2023-05-13T19:30:14;451.17;;;408.97;;
9900;SDS011;4989;48.772;9.154;2023-05-13T19:35:16;466.17;;;423.37;;
9900;SDS011;4989;48.772;9.154;2023-05-13T19:40:18;456.97;;;414.43;;
9900;SDS011;4989;48.772;9.154;2023-05-13T19:45:21;466.53;;;423.73;;
9900;SDS011;4989;48.772;9.154;2023-05-13T19:50:24;463.83;;;421.27;;
9900;SDS011;4989;48.772;9.154;2023-05-13T19:55:26;472.50;;;429.13;;
9900;SDS011;4989;48.772;9.154;2023-05-13T20:00:28;438.90;;;397.43;;
9900;SDS011;4989;48.772;9.154;2023-05-13T20:05:30;404.40;;;364.37;;
9900;SDS011;4989;48.772;9.154;2023-05-13T20:10:32;405.57;;;365.70;;
9900;SDS011;4989;48.772;9.154;2023-05-13T20:15:37;403.73;;;363.97;;
9900;SDS011;4989;48.772;9.154;2023-05-13T20:20:39;413.97;;;373.83;;
9900;SDS011;4989;48.772;9.154;2023-05-13T20:25:42;440.47;;;398.83;;
9900;SDS011;4989;48.772;9.154;2023-05-13T20:30:50;454.20;;;411.83;;
9900;SDS011;4989;48.772;9.154;2023-05-13T20:35:53;442.33;;;400.13;;
9900;SDS011;4989;48.772;9.154;2023-05-13T20:40:56;456.10;;;413.77;;
9900;SDS011;4989;48.772;9.154;2023-05-13T20:45:58;401.73;;;361.23;;
9900;SDS011;4989;48.772;9.154;2023-05-13T20:51:04;375.93;;;336.60;;
9900;SDS011;4989;48.772;9.154;2023-05-13T20:56:06;355.13;;;316.03;;
9900;SDS011;4989;48.772;9.154;2023-05-13T21:01:10;363.03;;;324.37;;
9900;SDS011;4989;48.772;9.154;2023-05-13T21:06:13;402.43;;;361.30;;
9900;SDS011;4989;48.772;9.154;2023-05-13T21:11:15;452.67;;;410.30;;
9900;SDS011;4989;48.772;9.154;2023-05-13T21:16:18;448.83;;;406.83;;
9900;SDS011;4989;48.772;9.154;2023-05-13T21:21:20;443.73;;;401.77;;
9900;SDS011;4989;48.772;9.154;2023-05-13T21:26:23;455.40;;;413.13;;
9900;SDS011;4989;48.772;9.154;2023-05-13T21:31:25;458.03;;;415.67;;
9900;SDS011;4989;48.772;9.154;2023-05-13T21:36:27;443.53;;;401.73;;
9900;SDS011;4989;48.772;9.154;2023-05-13T21:41:30;331.93;;;295.33;;
9900;SDS011;4989;48.772;9.154;2023-05-13T21:46:32;309.30;;;259.70;;
9900;SDS011;4989;48.772;9.154;2023-05-13T21:51:35;304.83;;;246.60;;
9900;SDS011;4989;48.772;9.154;2023-05-13T21:56:37;302.63;;;253.60;;
9900;SDS011;4989;48.772;9.154;2023-05-13T22:01:40;420.40;;;390.47;;
9900;SDS011;4989;48.772;9.154;2023-05-13T22:06:42;416.43;;;376.37;;
9900;SDS011;4989;48.772;9.154;2023-05-13T22:11:44;438.17;;;396.57;;
9900;SDS011;4989;48.772;9.154;2023-05-13T22:16:46;464.27;;;421.47;;
9900;SDS011;4989;48.772;9.154;2023-05-13T22:22:08;381.63;;;342.57;;
9900;SDS011;4989;48.772;9.154;2023-05-13T22:27:11;419.10;;;378.90;;
9900;SDS011;4989;48.772;9.154;2023-05-13T22:32:13;417.43;;;376.77;;
9900;SDS011;4989;48.772;9.154;2023-05-13T22:37:15;417.87;;;377.80;;
9900;SDS011;4989;48.772;9.154;2023-05-13T22:42:17;416.73;;;376.37;;
9900;SDS011;4989;48.772;9.154;2023-05-13T22:47:19;427.10;;;386.30;;
9900;SDS011;4989;48.772;9.154;2023-05-13T22:52:22;395.40;;;355.83;;
9900;SDS011;4989;48.772;9.154;2023-05-13T22:57:25;415.27;;;375.13;;
9900;SDS011;4989;48.772;9.154;2023-05-13T23:02:27;414.27;;;374.33;;
9900;SDS011;4989;48.772;9.154;2023-05-13T23:07:29;363.70;;;325.63;;
9900;SDS011;4989;48.772;9.154;2023-05-13T23:12:31;63.70;;;60.73;;
9900;SDS011;4989;48.772;9.154;2023-05-13T23:17:33;14.07;;;13.10;;
9900;SDS011;4989;48.772;9.154;2023-05-13T23:22:36;36.13;;;34.30;;
9900;SDS011;4989;48.772;9.154;2023-05-13T23:27:39;216.97;;;201.93;;
9900;SDS011;4989;48.772;9.154;2023-05-13T23:32:41;350.67;;;321.23;;
9900;SDS011;4989;48.772;9.154;2023-05-13T23:37:43;352.47;;;327.43;;
9900;SDS011;4989;48.772;9.154;2023-05-13T23:42:46;259.83;;;243.90;;
9900;SDS011;4989;48.772;9.154;2023-05-13T23:47:48;408.97;;;377.80;;
9900;SDS011;4989;48.772;9.154;2023-05-13T23:52:51;365.67;;;340.77;;
9900;SDS011;4989;48.772;9.154;2023-05-13T23:57:53;261.70;;;245.50;;
